Pagina principală
METAR-TAF:

METAR-TAF

Aeroporturi :

Omak Airport

Omak, Washington, Statele Unite ale Americii

Latitudine: 48-27-51N, longitudine: 119-31-05W, elevație: 397 m

Observații meteo curente

Raportul a fost făcut în urmă cu 28 de minute, la 21:53 UTC
Vânt 11 kt de la Nord cu rafale de până la 20 kt
Temperatură 20°C
Umiditate 30%
Presiune 1012 hPa
Vizibilitate: 16.1 km
Cer senin

METAR: KOMK 162153Z AUTO 01011G20KT 10SM CLR 20/02 A2989 RMK AO2 SLP121 T02000022

Ora: 15:21 (22:21 UTC)


TAF: lipsă

Observații și prognoze meteo pentru peste 4.000 de aeroporturi (rapoarte METAR și TAF).

Stațiile disponibile sunt reprezentate pe hartă prin puncte galbene și roșii.

Țineți indicatorul mouse-ului pe punctul dorit pentru a vedea denumirea stației.

Apoi, faceți clic pentru a vedea observațiile și prognozele meteorologice.

Pentru a schimba harta: Pentru mărire, faceți clic pe butoanele verzi cu cruce neagră; pentru micșorare, pe butonul verde cu o liniuță; pentru hărți învecinate, pe săgețile verzi.


METAR-TAF: